Time;durP1;ratioP1;P1;durP2;ratioP2;P2;SDS_P1;SDS_P2;PMS_P1;PMS_P2;Temp;Humidity;BMP_temperature;BMP_pressure;BME280_temperature;BME280_humidity;BME280_pressure;Samples;Min_cycle;Max_cycle;Signal;HPM_P1;HPM_P2
2023/02/02 00:02:35;;;;;;;7.80;3.20;;;;;;;1.70;97.03;99387.09;130712;1295;25277;-84
2023/02/02 00:05:36;;;;;;;13.70;3.90;;;;;;;1.73;96.97;99383.36;130526;1295;23245;-84
2023/02/02 00:08:38;;;;;;;18.20;4.50;;;;;;;1.75;96.84;99382.14;130567;1294;22645;-84
2023/02/02 00:11:39;;;;;;;17.30;3.60;;;;;;;1.79;96.84;99386.37;130528;1293;22577;-84
2023/02/02 00:14:40;;;;;;;18.60;3.50;;;;;;;1.81;96.74;99383.96;130655;1295;22642;-83
2023/02/02 00:17:40;;;;;;;11.70;3.70;;;;;;;1.82;96.58;99384.57;130674;1294;24455;-84
2023/02/02 00:20:41;;;;;;;14.60;4.30;;;;;;;1.83;96.52;99386.56;130324;1298;25316;-84
2023/02/02 00:23:42;;;;;;;11.00;4.20;;;;;;;1.85;96.50;99390.45;130363;1298;23967;-82
2023/02/02 00:26:46;;;;;;;19.20;3.70;;;;;;;1.85;96.50;99383.79;130856;1286;22559;-84
2023/02/02 00:29:52;;;;;;;11.10;3.60;;;;;;;1.87;96.38;99386.58;130922;1293;22581;-83
2023/02/02 00:32:53;;;;;;;12.80;3.30;;;;;;;1.89;96.33;99384.34;130795;1291;22671;-83
2023/02/02 00:35:53;;;;;;;12.20;3.20;;;;;;;1.90;96.17;99381.64;130915;1295;22559;-82
2023/02/02 00:38:54;;;;;;;;;;;;;;;1.90;96.07;99382.89;131002;1295;22537;-84
2023/02/02 00:41:55;;;;;;;20.90;3.80;;;;;;;1.88;95.89;99385.16;130529;1295;24224;-83
2023/02/02 00:48:15;;;;;;;15.80;3.30;;;;;;;1.85;95.70;99382.00;130646;1285;23137;-83
2023/02/02 00:51:15;;;;;;;13.00;2.80;;;;;;;1.85;95.66;99385.36;130637;1295;25313;-83
2023/02/02 00:54:16;;;;;;;11.50;3.00;;;;;;;1.84;95.52;99392.08;130400;1296;24062;-82
2023/02/02 00:57:16;;;;;;;13.90;3.10;;;;;;;1.84;95.61;99393.48;130399;1298;22652;-83
2023/02/02 01:00:22;;;;;;;13.30;3.20;;;;;;;1.84;95.49;99391.36;130877;1295;22769;-83
2023/02/02 01:03:24;;;;;;;12.50;3.20;;;;;;;1.85;95.44;99385.48;130845;1296;22575;-86
2023/02/02 01:06:26;;;;;;;20.00;3.50;;;;;;;1.85;95.53;99382.36;130723;1301;22567;-83
2023/02/02 01:09:26;;;;;;;;;;;;;;;1.86;95.39;99387.05;130489;1294;25344;-82
2023/02/02 01:12:27;;;;;;;11.50;3.30;;;;;;;1.86;95.31;99392.63;130829;1295;25271;-84
2023/02/02 01:15:29;;;;;;;15.30;3.70;;;;;;;1.86;95.22;99395.07;130644;1295;22608;-82
2023/02/02 01:18:30;;;;;;;12.90;3.20;;;;;;;1.85;95.19;99384.29;130831;1295;24265;-83
2023/02/02 01:21:31;;;;;;;13.30;4.30;;;;;;;1.87;95.11;99393.41;130932;1292;22586;-84
2023/02/02 01:24:31;;;;;;;10.50;2.80;;;;;;;1.88;95.07;99395.17;130996;1295;24034;-84
2023/02/02 01:27:32;;;;;;;13.80;3.20;;;;;;;1.89;95.03;99395.83;130879;1292;24331;-85
2023/02/02 01:30:33;;;;;;;11.00;3.00;;;;;;;1.90;94.96;99394.17;130777;1292;22558;-83
2023/02/02 01:33:33;;;;;;;16.40;3.50;;;;;;;1.91;94.75;99393.20;130888;1295;24081;-83
2023/02/02 01:36:34;;;;;;;18.10;3.70;;;;;;;1.92;94.68;99393.30;130684;1287;24299;-84
2023/02/02 01:39:35;;;;;;;;;;;;;;;1.93;94.52;99394.30;130676;1298;22556;-83
2023/02/02 01:42:36;;;;;;;14.20;2.90;;;;;;;1.92;94.39;99400.77;130801;1295;25317;-84
2023/02/02 01:45:38;;;;;;;12.90;3.10;;;;;;;1.93;94.12;99394.25;130804;1295;25284;-84
2023/02/02 01:48:43;;;;;;;14.50;3.40;;;;;;;1.94;94.05;99393.65;130859;1295;22602;-83
2023/02/02 01:51:49;;;;;;;19.00;3.80;;;;;;;1.95;94.13;99391.84;130389;1301;24302;-83
2023/02/02 01:54:56;;;;;;;14.80;3.50;;;;;;;1.95;93.96;99387.87;130658;1294;25701;-84
2023/02/02 01:58:10;;;;;;;12.40;2.80;;;;;;;1.96;93.79;99385.14;130498;1286;24406;-83
2023/02/02 02:01:12;;;;;;;21.10;3.30;;;;;;;1.95;93.69;99387.84;130866;1298;22630;-85
2023/02/02 02:04:14;;;;;;;13.00;2.90;;;;;;;1.96;93.44;99390.05;130668;1292;25268;-84
2023/02/02 02:07:14;;;;;;;13.80;2.60;;;;;;;1.97;93.63;99394.96;130419;1295;26638;-84
2023/02/02 02:10:17;;;;;;;14.00;3.10;;;;;;;1.97;93.32;99394.27;130567;1296;22556;-83
2023/02/02 02:13:21;;;;;;;9.10;2.50;;;;;;;1.98;93.16;99395.05;130365;1295;22561;-86
2023/02/02 02:16:34;;;;;;;16.50;3.30;;;;;;;1.99;93.33;99390.40;130760;1296;22577;-84
2023/02/02 02:27:29;;;;;;;12.50;2.60;;;;;;;2.04;92.58;99389.02;130241;1296;22553;-85
2023/02/02 02:30:48;;;;;;;8.60;2.40;;;;;;;2.06;92.38;99390.77;130837;1295;23928;-84
2023/02/02 02:34:07;;;;;;;10.30;2.90;;;;;;;2.06;92.16;99384.95;130861;1295;22563;-84
2023/02/02 02:37:26;;;;;;;11.20;2.50;;;;;;;2.09;91.96;99381.97;130622;1299;22606;-83
2023/02/02 02:40:35;;;;;;;10.60;2.80;;;;;;;2.09;92.13;99376.67;130962;1295;22688;-85
2023/02/02 02:43:46;;;;;;;9.20;2.50;;;;;;;2.10;92.01;99379.70;130494;1296;22585;-82
2023/02/02 02:46:48;;;;;;;9.90;2.90;;;;;;;2.12;91.93;99375.78;130770;1291;22633;-85
2023/02/02 02:49:50;;;;;;;13.40;2.90;;;;;;;2.12;91.72;99375.73;131034;1296;23039;-84
2023/02/02 02:53:05;;;;;;;8.10;2.20;;;;;;;2.14;91.44;99377.83;130804;1292;22668;-83
2023/02/02 02:56:19;;;;;;;18.20;3.00;;;;;;;2.15;90.95;99369.34;130347;1298;22615;-84
2023/02/02 02:59:38;;;;;;;13.30;2.90;;;;;;;2.18;90.88;99366.69;130923;1295;24406;-82
2023/02/02 03:03:01;;;;;;;11.90;2.80;;;;;;;2.18;90.99;99362.46;131049;1295;25404;-84
2023/02/02 03:06:01;;;;;;;9.80;2.80;;;;;;;2.20;90.67;99359.70;130825;1294;23313;-84
2023/02/02 03:09:07;;;;;;;17.40;3.20;;;;;;;2.21;90.52;99359.29;130770;1292;24084;-83
2023/02/02 03:12:08;;;;;;;16.00;3.30;;;;;;;2.22;90.76;99359.48;130605;1295;22567;-84
2023/02/02 03:15:09;;;;;;;11.90;2.40;;;;;;;2.23;90.49;99360.65;130738;1295;25345;-85
2023/02/02 03:18:11;;;;;;;;;;;;;;;2.22;90.36;99353.39;130902;1289;22547;-83
2023/02/02 03:21:12;;;;;;;11.10;2.50;;;;;;;2.23;90.20;99345.66;130586;1295;22631;-83
2023/02/02 03:24:13;;;;;;;11.20;2.80;;;;;;;2.24;90.16;99339.59;130349;1296;22589;-83
2023/02/02 03:27:13;;;;;;;11.60;2.30;;;;;;;2.25;90.11;99337.29;130655;1295;22597;-83
2023/02/02 03:30:14;;;;;;;13.60;3.50;;;;;;;2.27;90.00;99327.75;130916;1291;24300;-84
2023/02/02 03:33:15;;;;;;;;;;;;;;;2.28;89.53;99316.45;130858;1289;22600;-85
2023/02/02 03:36:15;;;;;;;15.20;2.90;;;;;;;2.29;89.54;99312.66;130839;1295;23364;-85
2023/02/02 03:39:16;;;;;;;10.40;3.30;;;;;;;2.30;89.79;99308.77;130676;1296;25268;-83
2023/02/02 03:42:16;;;;;;;17.70;3.40;;;;;;;2.31;89.39;99308.35;130701;1295;22553;-84
2023/02/02 03:45:17;;;;;;;19.80;3.90;;;;;;;2.33;88.94;99301.32;130574;1294;24260;-84
2023/02/02 03:48:18;;;;;;;17.00;3.00;;;;;;;2.35;89.08;99299.09;130674;1296;22678;-83
2023/02/02 03:51:18;;;;;;;16.40;3.60;;;;;;;2.36;88.55;99297.22;130635;1294;22612;-84
2023/02/02 03:54:19;;;;;;;11.00;3.00;;;;;;;2.38;88.67;99289.04;130773;1296;25950;-84
2023/02/02 03:57:20;;;;;;;14.80;4.00;;;;;;;2.41;88.23;99280.74;130632;1296;22560;-83
2023/02/02 04:00:21;;;;;;;18.30;3.30;;;;;;;2.42;88.10;99280.48;130582;1295;24425;-83
2023/02/02 04:03:21;;;;;;;14.70;3.10;;;;;;;2.42;87.79;99272.61;130667;1295;22575;-85
2023/02/02 04:06:25;;;;;;;11.60;4.10;;;;;;;2.44;87.38;99275.37;130682;1295;22557;-85
2023/02/02 04:09:27;;;;;;;11.70;3.30;;;;;;;2.45;87.74;99273.21;130849;1294;22573;-84
2023/02/02 04:12:27;;;;;;;10.70;3.00;;;;;;;2.44;87.38;99269.96;131061;1289;26645;-86
2023/02/02 04:15:28;;;;;;;23.50;7.20;;;;;;;2.45;87.33;99278.42;131032;1295;25387;-84
2023/02/02 04:18:28;;;;;;;19.00;6.20;;;;;;;2.44;87.33;99268.96;130975;1296;22689;-84
2023/02/02 04:21:29;;;;;;;17.60;3.80;;;;;;;2.41;87.43;99277.25;130580;1296;24222;-82
2023/02/02 04:24:30;;;;;;;11.10;3.50;;;;;;;2.39;87.52;99274.23;130749;1295;22621;-85
2023/02/02 04:27:33;;;;;;;15.00;4.70;;;;;;;2.36;87.81;99264.23;131021;1293;22685;-84
2023/02/02 04:30:34;;;;;;;14.60;3.20;;;;;;;2.35;87.60;99263.63;130915;1295;25550;-83
2023/02/02 04:33:35;;;;;;;12.50;3.90;;;;;;;2.37;87.48;99266.98;130962;1285;22546;-84
2023/02/02 04:36:35;;;;;;;10.30;3.00;;;;;;;2.39;87.31;99268.89;131093;1293;22612;-84
2023/02/02 04:39:36;;;;;;;9.10;3.20;;;;;;;2.40;87.00;99260.54;131050;1291;25572;-83
2023/02/02 04:42:36;;;;;;;13.90;3.20;;;;;;;2.44;87.10;99262.19;130446;1295;24284;-85
2023/02/02 04:45:38;;;;;;;12.30;3.60;;;;;;;2.45;86.86;99261.70;130682;1291;24265;-84
2023/02/02 04:48:42;;;;;;;14.70;3.00;;;;;;;2.47;87.24;99269.23;131058;1295;22619;-84
2023/02/02 04:51:43;;;;;;;10.10;2.90;;;;;;;2.48;86.68;99262.16;130917;1295;22757;-82
2023/02/02 04:54:43;;;;;;;12.10;2.50;;;;;;;2.49;86.75;99260.81;130857;1296;24304;-81
2023/02/02 04:57:44;;;;;;;11.20;2.80;;;;;;;2.52;86.76;99261.26;130847;1292;23295;-83
2023/02/02 05:00:44;;;;;;;15.20;3.20;;;;;;;2.54;86.06;99260.37;131106;1295;25448;-82
2023/02/02 05:03:46;;;;;;;11.20;2.50;;;;;;;2.58;85.98;99254.95;131062;1295;22641;-81
2023/02/02 05:06:46;;;;;;;11.20;2.80;;;;;;;2.59;86.18;99249.27;130870;1295;22709;-82
2023/02/02 05:09:47;;;;;;;7.80;2.60;;;;;;;2.60;85.60;99252.33;130827;1294;24852;-83
2023/02/02 05:12:47;;;;;;;13.40;2.50;;;;;;;2.62;85.92;99249.58;130830;1291;22563;-83
2023/02/02 05:15:48;;;;;;;15.80;2.90;;;;;;;2.61;85.75;99245.59;130801;1290;24342;-83
2023/02/02 05:18:52;;;;;;;12.20;2.60;;;;;;;2.63;85.44;99237.61;130781;1288;22653;-84
2023/02/02 05:21:53;;;;;;;11.80;3.10;;;;;;;2.66;85.17;99243.39;131302;1294;22617;-83
2023/02/02 05:24:54;;;;;;;17.10;3.70;;;;;;;2.68;84.81;99241.30;130486;1295;22877;-83
2023/02/02 05:27:56;;;;;;;11.90;2.60;;;;;;;2.71;85.04;99242.63;130375;1295;22563;-82
2023/02/02 05:30:56;;;;;;;6.60;2.10;;;;;;;2.73;85.07;99243.16;130629;1295;137400;-83
2023/02/02 05:33:59;;;;;;;14.10;2.90;;;;;;;2.73;85.06;99241.27;130624;1295;24254;-87
2023/02/02 05:37:02;;;;;;;14.40;3.20;;;;;;;2.73;84.90;99234.79;130821;1285;25709;-84
2023/02/02 05:40:03;;;;;;;9.60;2.80;;;;;;;2.74;84.77;99234.48;130803;1279;25370;-82
2023/02/02 05:43:04;;;;;;;16.20;3.00;;;;;;;2.75;85.13;99241.95;130824;1286;22757;-85
2023/02/02 05:46:05;;;;;;;9.00;2.70;;;;;;;2.74;85.16;99244.50;131043;1294;25210;-85
2023/02/02 05:49:06;;;;;;;9.40;2.50;;;;;;;2.72;85.46;99249.25;130741;1295;22552;-86
2023/02/02 05:52:14;;;;;;;16.10;3.20;;;;;;;2.67;85.61;99248.17;132366;1296;22596;-86
2023/02/02 05:55:14;;;;;;;12.00;3.10;;;;;;;2.64;85.91;99249.35;130873;1295;25341;-86
2023/02/02 05:58:15;;;;;;;10.40;2.80;;;;;;;2.59;86.34;99253.84;131139;1286;22601;-82
2023/02/02 06:01:17;;;;;;;;;;;;;;;2.53;86.58;99257.51;131370;1292;23375;-82
2023/02/02 06:04:17;;;;;;;8.70;2.50;;;;;;;2.48;86.81;99249.52;131175;1286;22575;-80
2023/02/02 06:07:18;;;;;;;9.00;3.50;;;;;;;2.46;87.23;99256.75;131284;1289;24509;-82
2023/02/02 06:10:18;;;;;;;9.70;2.70;;;;;;;2.44;87.41;99266.86;130856;1295;23758;-83
2023/02/02 06:13:21;;;;;;;15.20;3.30;;;;;;;2.43;87.61;99275.69;131149;1285;22746;-80
2023/02/02 06:16:21;;;;;;;12.50;2.90;;;;;;;2.41;87.87;99284.38;130941;1290;22699;-82
2023/02/02 06:19:22;;;;;;;10.10;2.50;;;;;;;2.40;88.15;99289.58;131151;1295;22567;-82
2023/02/02 06:22:22;;;;;;;9.50;2.70;;;;;;;2.38;88.44;99300.90;130858;1295;22901;-82
2023/02/02 06:25:23;;;;;;;16.70;2.90;;;;;;;2.35;88.84;99290.68;131068;1294;25288;-82
2023/02/02 06:28:24;;;;;;;9.80;2.80;;;;;;;2.32;88.95;99303.56;131124;1294;25482;-82
2023/02/02 06:31:25;;;;;;;9.30;2.70;;;;;;;2.27;89.35;99289.82;131067;1295;25509;-85
2023/02/02 06:34:25;;;;;;;8.20;2.50;;;;;;;2.24;89.48;99300.36;131092;1295;24285;-82
2023/02/02 06:37:26;;;;;;;10.90;2.80;;;;;;;2.22;89.48;99309.75;131044;1294;22585;-84
2023/02/02 06:40:27;;;;;;;10.60;2.70;;;;;;;2.21;89.90;99305.11;131030;1289;22556;-81
2023/02/02 06:43:29;;;;;;;8.10;2.50;;;;;;;2.23;89.91;99302.23;131001;1295;22745;-83
2023/02/02 06:46:29;;;;;;;7.30;2.30;;;;;;;2.27;90.06;99310.12;131055;1295;25560;-81
2023/02/02 06:49:30;;;;;;;4.90;2.20;;;;;;;2.31;90.12;99297.70;131074;1289;22567;-84
2023/02/02 06:52:31;;;;;;;12.80;2.70;;;;;;;2.38;89.45;99307.23;131062;1295;22574;-82
2023/02/02 06:55:31;;;;;;;8.20;2.60;;;;;;;2.41;89.45;99309.16;131052;1294;22559;-82
2023/02/02 06:58:32;;;;;;;5.10;1.80;;;;;;;2.43;89.39;99311.56;130946;1295;22591;-81
2023/02/02 07:01:34;;;;;;;6.60;2.10;;;;;;;2.45;89.34;99314.23;130907;1292;25722;-82
2023/02/02 07:04:34;;;;;;;6.10;2.20;;;;;;;2.46;89.31;99316.42;130479;1294;22645;-83
2023/02/02 07:07:35;;;;;;;10.70;2.60;;;;;;;2.47;89.18;99322.98;131085;1295;24261;-84
2023/02/02 07:10:37;;;;;;;6.50;2.30;;;;;;;2.47;89.52;99326.96;130893;1295;22774;-83
2023/02/02 07:13:38;;;;;;;6.00;2.20;;;;;;;2.49;89.11;99328.09;130709;1295;24231;-81
2023/02/02 07:16:38;;;;;;;5.80;1.90;;;;;;;2.50;89.23;99339.65;130931;1295;22763;-84
2023/02/02 07:19:39;;;;;;;5.20;2.30;;;;;;;2.51;89.24;99355.99;130944;1295;22682;-83
2023/02/02 07:22:40;;;;;;;6.80;2.20;;;;;;;2.51;89.30;99360.02;130979;1295;25332;-84
2023/02/02 07:25:40;;;;;;;;;;;;;;;2.50;89.38;99368.79;130870;1295;25427;-82
2023/02/02 07:28:41;;;;;;;6.40;2.10;;;;;;;2.49;89.28;99379.91;131083;1295;22594;-83
2023/02/02 07:31:41;;;;;;;5.40;2.60;;;;;;;2.47;89.46;99387.20;130882;1295;23255;-83
2023/02/02 07:34:43;;;;;;;5.40;2.60;;;;;;;2.47;89.38;99381.48;130807;1293;24409;-82
2023/02/02 07:37:43;;;;;;;4.10;2.10;;;;;;;2.50;89.19;99397.47;130463;1295;22582;-83
2023/02/02 07:40:45;;;;;;;6.40;2.90;;;;;;;2.51;89.38;99402.59;131046;1293;25523;-84
2023/02/02 07:43:47;;;;;;;10.70;2.70;;;;;;;2.52;89.11;99415.59;131371;1293;22469;-85
2023/02/02 07:46:47;;;;;;;7.20;2.20;;;;;;;2.47;89.53;99414.79;131569;1294;23386;-83
2023/02/02 07:49:51;;;;;;;11.40;3.20;;;;;;;2.43;89.77;99421.92;131003;1293;25135;-84
2023/02/02 07:52:52;;;;;;;7.00;2.90;;;;;;;2.40;89.86;99430.92;130967;1295;22563;-83
2023/02/02 07:55:53;;;;;;;7.20;2.50;;;;;;;2.36;90.26;99440.87;131094;1295;25703;-83
2023/02/02 07:58:55;;;;;;;6.90;2.20;;;;;;;2.33;90.39;99449.00;131167;1293;24519;-82
2023/02/02 08:01:55;;;;;;;9.30;2.60;;;;;;;2.32;90.81;99457.30;130877;1294;22574;-82
2023/02/02 08:04:56;;;;;;;8.80;2.40;;;;;;;2.34;91.01;99455.74;131126;1285;22672;-83
2023/02/02 08:07:59;;;;;;;6.70;2.20;;;;;;;2.37;90.62;99461.05;131092;1293;22730;-83
2023/02/02 08:11:00;;;;;;;8.80;2.60;;;;;;;2.42;90.57;99463.44;131120;1295;22619;-81
2023/02/02 08:14:01;;;;;;;8.20;2.00;;;;;;;2.48;90.38;99475.64;131119;1286;26531;-81
2023/02/02 08:17:02;;;;;;;7.30;2.10;;;;;;;2.56;90.60;99485.81;131056;1295;24356;-83
2023/02/02 08:20:03;;;;;;;6.30;2.10;;;;;;;2.65;90.39;99483.97;131095;1295;22575;-84
2023/02/02 08:23:03;;;;;;;;;;;;;;;2.78;90.21;99494.03;131316;1293;22685;-81
2023/02/02 08:26:11;;;;;;;7.00;1.80;;;;;;;2.89;89.93;99498.14;131085;1295;24382;-83
2023/02/02 08:29:16;;;;;;;5.40;2.10;;;;;;;3.01;89.89;99506.05;131057;1293;22648;-85
2023/02/02 08:32:16;;;;;;;8.00;3.40;;;;;;;3.06;88.91;99511.69;131034;1295;22612;-85
2023/02/02 08:35:18;;;;;;;8.90;3.40;;;;;;;3.11;88.38;99519.34;131010;1293;24220;-86
2023/02/02 08:38:18;;;;;;;8.20;2.80;;;;;;;3.26;88.12;99526.27;130780;1295;22559;-85
2023/02/02 08:41:22;;;;;;;5.50;2.10;;;;;;;3.36;87.10;99527.91;131051;1295;22668;-86
2023/02/02 08:44:24;;;;;;;4.90;1.40;;;;;;;3.50;86.35;99532.89;131118;1291;22575;-86
2023/02/02 08:47:28;;;;;;;7.10;2.60;;;;;;;3.60;84.44;99533.91;131015;1295;23306;-83
2023/02/02 08:50:29;;;;;;;4.60;1.70;;;;;;;3.73;84.42;99546.70;130974;1293;22569;-83
2023/02/02 08:53:30;;;;;;;4.40;1.90;;;;;;;4.10;84.36;99553.04;131168;1293;22550;-82
2023/02/02 08:56:32;;;;;;;5.40;1.90;;;;;;;4.42;83.37;99550.59;130949;1293;25335;-84
2023/02/02 08:59:32;;;;;;;7.10;1.40;;;;;;;4.35;81.78;99553.04;130877;1293;22694;-82
2023/02/02 09:02:33;;;;;;;5.30;2.00;;;;;;;4.16;81.91;99569.52;131097;1295;22725;-82
2023/02/02 09:05:37;;;;;;;7.80;1.90;;;;;;;4.09;81.98;99568.73;131070;1293;22559;-83
2023/02/02 09:08:38;;;;;;;8.90;1.80;;;;;;;3.93;81.90;99580.26;131126;1291;25865;-84
2023/02/02 09:11:39;;;;;;;2.30;1.20;;;;;;;3.76;82.19;99585.81;131091;1294;24103;-83
2023/02/02 09:14:40;;;;;;;4.30;1.80;;;;;;;3.73;82.45;99593.05;131067;1294;23227;-82
2023/02/02 09:17:40;;;;;;;4.80;1.40;;;;;;;3.77;82.29;99593.61;131029;1295;24215;-83
2023/02/02 09:20:44;;;;;;;5.10;1.90;;;;;;;4.00;81.96;99598.68;130829;1295;22570;-84
2023/02/02 09:23:47;;;;;;;5.50;2.00;;;;;;;4.12;82.01;99595.40;131093;1294;22764;-83
2023/02/02 09:26:47;;;;;;;5.60;1.80;;;;;;;4.24;81.11;99596.92;131011;1293;23090;-82
2023/02/02 09:29:48;;;;;;;3.70;1.80;;;;;;;4.29;80.76;99601.77;130694;1295;25386;-83
2023/02/02 09:32:49;;;;;;;5.40;1.80;;;;;;;4.28;80.14;99613.71;131119;1295;25338;-82
2023/02/02 09:35:50;;;;;;;6.80;1.70;;;;;;;4.35;79.76;99606.43;130976;1295;22555;-84
2023/02/02 09:38:55;;;;;;;6.60;1.70;;;;;;;4.30;78.40;99603.55;130873;1295;23950;-83
2023/02/02 09:41:58;;;;;;;6.90;2.40;;;;;;;4.18;78.35;99615.12;131072;1294;26531;-83
2023/02/02 09:45:06;;;;;;;6.80;2.10;;;;;;;4.29;78.63;99620.48;131134;1293;25420;-83
2023/02/02 09:48:18;;;;;;;5.70;1.80;;;;;;;4.49;79.26;99633.58;131078;1293;22675;-85
2023/02/02 09:51:24;;;;;;;6.20;2.20;;;;;;;4.62;78.05;99631.88;131077;1293;22678;-82
2023/02/02 09:54:40;;;;;;;3.40;1.60;;;;;;;4.65;78.00;99632.05;131195;1289;22885;-83
2023/02/02 09:57:48;;;;;;;4.50;1.80;;;;;;;4.72;77.05;99635.82;130997;1293;27052;-83
2023/02/02 10:01:03;;;;;;;4.60;1.60;;;;;;;4.73;76.14;99628.87;131158;1294;25439;-84
2023/02/02 10:04:24;;;;;;;4.10;2.00;;;;;;;4.71;74.86;99640.45;130713;1279;22677;-82
2023/02/02 10:07:44;;;;;;;5.20;1.80;;;;;;;4.89;75.52;99648.93;130868;1289;23441;-85
2023/02/02 10:10:47;;;;;;;8.60;2.40;;;;;;;5.27;76.40;99662.98;131150;1295;22567;-84
2023/02/02 10:13:51;;;;;;;7.90;2.50;;;;;;;5.61;75.90;99658.73;131194;1293;24300;-84
2023/02/02 10:16:54;;;;;;;5.90;1.80;;;;;;;5.80;74.05;99658.97;130617;1293;24222;-88
2023/02/02 10:20:02;;;;;;;8.90;1.80;;;;;;;5.84;73.13;99659.66;130915;1295;24281;-83
2023/02/02 10:23:23;;;;;;;6.70;2.30;;;;;;;5.81;71.35;99662.95;130841;1295;22557;-85
2023/02/02 10:26:52;;;;;;;4.50;1.70;;;;;;;5.69;69.65;99661.69;130753;1293;25504;-85
2023/02/02 10:30:14;;;;;;;6.80;1.80;;;;;;;5.74;70.58;99676.43;130964;1291;24267;-85
2023/02/02 10:33:37;;;;;;;7.80;1.90;;;;;;;5.89;70.36;99671.54;131157;1295;22578;-85
2023/02/02 10:36:56;;;;;;;3.70;1.70;;;;;;;5.91;68.47;99681.80;130961;1287;23305;-85
2023/02/02 10:40:02;;;;;;;7.20;1.80;;;;;;;5.82;67.60;99688.84;130745;1295;24043;-86
2023/02/02 10:46:55;;;;;;;6.50;2.50;;;;;;;5.84;68.12;99701.27;131024;1293;24457;-83
2023/02/02 10:50:11;;;;;;;4.10;1.60;;;;;;;5.66;66.92;99707.35;130980;1294;25415;-85
2023/02/02 10:53:13;;;;;;;4.40;2.00;;;;;;;5.44;68.28;99720.09;130657;1295;23051;-84
2023/02/02 10:56:18;;;;;;;5.50;2.50;;;;;;;5.38;69.50;99731.56;130723;1294;22697;-86
2023/02/02 10:59:46;;;;;;;7.60;2.40;;;;;;;5.23;68.56;99735.78;130740;1295;26646;-85
2023/02/02 11:02:47;;;;;;;6.40;2.10;;;;;;;4.94;68.27;99734.07;130835;1294;24221;-86
2023/02/02 11:09:11;;;;;;;5.90;1.60;;;;;;;4.58;69.44;99741.14;131131;1293;22805;-87
2023/02/02 11:12:19;;;;;;;6.50;2.10;;;;;;;4.52;69.08;99745.75;130709;1293;22556;-86
2023/02/02 11:15:29;;;;;;;5.30;1.60;;;;;;;4.58;69.67;99743.27;130568;1296;22730;-87
2023/02/02 11:18:30;;;;;;;4.00;1.50;;;;;;;4.61;69.17;99751.17;130773;1295;23025;-88
2023/02/02 11:21:36;;;;;;;6.50;1.90;;;;;;;4.68;69.81;99755.44;130563;1297;25373;-85
2023/02/02 11:24:46;;;;;;;6.90;2.70;;;;;;;4.99;70.09;99757.21;130588;1295;24280;-86
2023/02/02 11:27:47;;;;;;;3.50;1.50;;;;;;;5.43;70.44;99753.42;130618;1295;25425;-86
2023/02/02 11:30:51;;;;;;;7.50;2.10;;;;;;;5.62;68.64;99750.02;130746;1295;25571;-87
2023/02/02 11:33:52;;;;;;;8.40;2.50;;;;;;;5.58;68.25;99762.84;130349;1297;25468;-88
2023/02/02 11:37:02;;;;;;;6.20;2.00;;;;;;;5.57;69.06;99770.38;130721;1295;25488;-86
2023/02/02 11:40:24;;;;;;;9.90;2.80;;;;;;;5.63;69.41;99770.33;131095;1295;22780;-86
2023/02/02 11:43:49;;;;;;;5.50;2.30;;;;;;;5.77;68.96;99767.17;130450;1295;23941;-84
2023/02/02 11:46:51;;;;;;;12.00;2.60;;;;;;;5.96;68.88;99772.11;130748;1295;24292;-86
2023/02/02 11:49:54;;;;;;;14.30;2.70;;;;;;;6.00;67.90;99774.77;130450;1296;25348;-87
2023/02/02 11:52:55;;;;;;;12.90;3.10;;;;;;;5.69;67.39;99780.58;130881;1295;22668;-86
2023/02/02 11:56:00;;;;;;;4.90;2.20;;;;;;;5.42;68.36;99782.96;130548;1296;22691;-85
2023/02/02 11:59:02;;;;;;;8.60;2.20;;;;;;;5.14;67.00;99792.19;130517;1295;25517;-84
2023/02/02 12:02:18;;;;;;;6.80;1.90;;;;;;;4.94;67.56;99795.02;130758;1295;25275;-85
2023/02/02 12:05:19;;;;;;;6.10;2.10;;;;;;;4.83;67.74;99806.55;130775;1295;22553;-83
2023/02/02 12:08:20;;;;;;;3.10;1.70;;;;;;;4.74;68.09;99797.86;130598;1298;22565;-85
2023/02/02 12:11:28;;;;;;;;;;;;;;;4.65;68.35;99800.95;130678;1295;22560;-85
2023/02/02 12:14:39;;;;;;;4.70;2.10;;;;;;;4.57;68.37;99808.02;130865;1296;25376;-83
2023/02/02 12:17:44;;;;;;;11.30;3.60;;;;;;;4.53;68.52;99811.19;130972;1295;23940;-85
2023/02/02 12:20:55;;;;;;;7.40;2.30;;;;;;;4.49;68.90;99815.34;130869;1295;22619;-85
2023/02/02 12:24:23;;;;;;;7.50;2.20;;;;;;;4.44;68.73;99814.06;130816;1295;22559;-85
2023/02/02 12:27:50;;;;;;;7.30;2.40;;;;;;;4.39;68.80;99822.88;130949;1295;24208;-85
2023/02/02 12:31:00;;;;;;;7.40;2.80;;;;;;;4.44;69.31;99829.95;130667;1295;22561;-84
2023/02/02 12:34:06;;;;;;;7.10;2.10;;;;;;;4.46;68.90;99823.65;131079;1294;22559;-84
2023/02/02 12:37:37;;;;;;;7.00;2.30;;;;;;;4.40;68.06;99828.94;131255;1293;25370;-83
2023/02/02 12:40:54;;;;;;;6.50;2.40;;;;;;;4.32;68.65;99835.27;131233;1293;22568;-86
2023/02/02 12:44:27;;;;;;;7.50;2.10;;;;;;;4.28;68.53;99834.52;131107;1294;25358;-84
2023/02/02 12:47:32;;;;;;;5.80;2.40;;;;;;;4.31;68.50;99845.29;131125;1293;25425;-84
2023/02/02 12:50:42;;;;;;;6.40;2.40;;;;;;;4.34;68.22;99840.36;130801;1293;24212;-83
2023/02/02 12:54:09;;;;;;;10.00;2.50;;;;;;;4.33;67.35;99843.36;130544;1293;22662;-84
2023/02/02 12:57:58;;;;;;;8.60;2.00;;;;;;;4.28;67.10;99851.72;130825;1295;24279;-85
2023/02/02 13:01:01;;;;;;;4.40;2.00;;;;;;;4.29;67.78;99856.34;130775;1293;24302;-83
2023/02/02 13:04:33;;;;;;;8.20;2.30;;;;;;;4.29;67.72;99852.64;131118;1295;25309;-85
2023/02/02 13:07:51;;;;;;;4.60;2.50;;;;;;;4.28;68.59;99864.64;130736;1286;22640;-85
2023/02/02 13:10:59;;;;;;;6.50;2.10;;;;;;;4.27;68.52;99859.27;131117;1293;24291;-85
2023/02/02 13:14:08;;;;;;;4.00;1.80;;;;;;;4.24;68.59;99866.02;131079;1295;24241;-83
2023/02/02 13:17:26;;;;;;;8.20;2.00;;;;;;;4.13;68.21;99863.14;131123;1293;22668;-83
2023/02/02 13:20:41;;;;;;;5.60;2.00;;;;;;;4.02;68.46;99870.00;130806;1293;23073;-83
2023/02/02 13:23:56;;;;;;;4.30;2.00;;;;;;;3.95;68.92;99872.58;131083;1295;24478;-83
2023/02/02 13:27:01;;;;;;;8.00;2.50;;;;;;;3.87;68.96;99881.95;130779;1295;23923;-84
2023/02/02 13:30:33;;;;;;;7.30;2.30;;;;;;;3.80;69.47;99878.71;130805;1295;25563;-84
2023/02/02 13:33:36;;;;;;;4.90;1.90;;;;;;;3.74;69.89;99889.89;131010;1295;22609;-83
2023/02/02 13:36:42;;;;;;;6.10;2.40;;;;;;;3.70;70.09;99886.36;131130;1293;25284;-83
2023/02/02 13:39:48;;;;;;;5.70;2.00;;;;;;;3.66;69.57;99890.75;131121;1295;25433;-83
2023/02/02 13:43:16;;;;;;;4.50;1.80;;;;;;;3.63;69.93;99895.36;131076;1282;22559;-84
2023/02/02 13:47:02;;;;;;;13.90;4.50;;;;;;;3.62;71.13;99908.20;131087;1289;23087;-84
2023/02/02 13:50:12;;;;;;;9.80;4.20;;;;;;;3.49;72.73;99914.15;130973;1286;24400;-88
2023/02/02 13:53:38;;;;;;;11.40;4.30;;;;;;;3.39;73.57;99918.31;131236;1293;26327;-82
2023/02/02 13:56:42;;;;;;;8.40;4.20;;;;;;;3.25;74.78;99920.64;130800;1293;22574;-82
2023/02/02 13:59:52;;;;;;;8.40;3.80;;;;;;;3.11;75.13;99930.69;131042;1293;22679;-83
2023/02/02 14:02:59;;;;;;;8.70;4.20;;;;;;;3.00;75.63;99937.06;131177;1294;22559;-85
2023/02/02 14:06:18;;;;;;;8.90;3.20;;;;;;;2.90;76.48;99940.31;130726;1293;25457;-83
2023/02/02 14:09:19;;;;;;;14.60;3.80;;;;;;;2.79;76.56;99947.27;130697;1298;22661;-84
2023/02/02 14:12:29;;;;;;;12.90;4.20;;;;;;;2.69;76.95;99953.80;130795;1295;22559;-85
2023/02/02 14:15:43;;;;;;;7.80;3.50;;;;;;;2.54;77.73;99953.92;130916;1295;26535;-85
2023/02/02 14:18:55;;;;;;;9.40;3.60;;;;;;;2.43;78.36;99960.91;130718;1296;22562;-83
2023/02/02 14:22:08;;;;;;;9.40;3.70;;;;;;;2.34;78.31;99974.66;130725;1296;22563;-85
2023/02/02 14:25:27;;;;;;;17.90;6.80;;;;;;;2.24;78.64;99988.33;130867;1295;22870;-85
2023/02/02 14:28:45;;;;;;;11.10;6.00;;;;;;;2.15;78.71;99995.63;130969;1295;22560;-84
2023/02/02 14:31:53;;;;;;;16.80;4.60;;;;;;;2.13;79.29;99994.98;130636;1296;22559;-85
2023/02/02 14:35:07;;;;;;;8.00;3.90;;;;;;;2.13;79.66;100000.91;130855;1294;23512;-85
2023/02/02 14:38:17;;;;;;;11.00;4.30;;;;;;;2.13;79.80;100005.04;130702;1295;25572;-85
2023/02/02 14:45:09;;;;;;;9.90;3.80;;;;;;;2.16;79.92;100018.27;130664;1295;26675;-85
2023/02/02 14:48:22;;;;;;;7.20;3.20;;;;;;;2.20;79.91;100011.32;130308;1295;22585;-83
2023/02/02 14:51:26;;;;;;;10.70;3.50;;;;;;;2.25;79.83;100030.33;130670;1296;22559;-83
2023/02/02 14:54:32;;;;;;;8.10;2.80;;;;;;;2.28;79.92;100037.83;130692;1289;25407;-83